South Quincy, Massachusetts
Current Conditions -  °F | °C
As of 11:54 PM on Tuesday 25 Nov 2014 (Local Time) from KBOS Reporting Station
Overcast Overcast  
Wind Chill: 50°   Ceiling: 20000
Heat Index: 50°   Visibility: 10mi
Dew Point: 28°   Wind: 10mph
Humidity: 43%   Direction: 260°W
Pressure: 30.12"   Gusts: NA
Location:  42.2468°N, 71.0071°W
Report Text: KBOS 260454Z 26009KT 10SM SCT130 OVC200 10/M02 A3012 RMK AO2 SLP199 T01001022 401670089
Loading
Personal Weather Stations






























Interactive Weather Map New forecast layout! Learn more

10-Day Weather Forecast

Advertisements
Track Severe Weather on mobile